createdAt,value
2023-04-20T00:02:51.208Z,7.64
2023-04-20T00:07:54.642Z,7.60
2023-04-20T00:12:56.407Z,7.57
2023-04-20T00:17:58.365Z,7.52
2023-04-20T00:23:00.152Z,7.44
2023-04-20T00:28:01.937Z,7.40
2023-04-20T00:33:03.962Z,7.36
2023-04-20T00:38:06.026Z,7.39
2023-04-20T00:43:14.266Z,7.43
2023-04-20T00:48:16.075Z,7.46
2023-04-20T00:53:19.281Z,7.44
2023-04-20T00:58:21.628Z,7.41
2023-04-20T01:03:23.693Z,7.35
2023-04-20T01:08:27.543Z,7.32
2023-04-20T01:13:30.576Z,7.31
2023-04-20T01:18:47.375Z,7.36
2023-04-20T01:23:50.072Z,7.27
2023-04-20T01:28:52.036Z,7.25
2023-04-20T01:33:54.495Z,7.25
2023-04-20T01:38:56.551Z,7.27
2023-04-20T01:43:58.451Z,7.28
2023-04-20T01:49:00.292Z,7.27
2023-04-20T01:54:02.533Z,7.25
2023-04-20T01:59:04.376Z,7.19
2023-04-20T02:04:06.256Z,7.15
2023-04-20T02:09:09.429Z,7.13
2023-04-20T02:14:11.218Z,7.12
2023-04-20T02:19:13.075Z,7.06
2023-04-20T02:24:14.902Z,7.00
2023-04-20T02:29:17.002Z,7.04
2023-04-20T02:34:19.299Z,6.94
2023-04-20T02:39:21.382Z,6.95
2023-04-20T02:44:23.178Z,6.98
2023-04-20T02:49:25.355Z,6.94
2023-04-20T02:54:27.303Z,6.94
2023-04-20T02:59:29.197Z,6.91
2023-04-20T03:04:54.119Z,6.86
2023-04-20T03:09:57.077Z,6.81
2023-04-20T03:15:19.293Z,6.76
2023-04-20T03:20:41.462Z,6.73
2023-04-20T03:25:43.754Z,6.66
2023-04-20T03:30:53.207Z,6.65
2023-04-20T03:35:55.765Z,6.55
2023-04-20T03:40:57.661Z,6.46
2023-04-20T03:45:59.544Z,6.37
2023-04-20T03:51:01.579Z,6.37
2023-04-20T03:56:03.461Z,6.38
2023-04-20T04:01:09.993Z,6.35
2023-04-20T04:06:16.134Z,6.33
2023-04-20T04:11:18.009Z,6.26
2023-04-20T04:16:20.590Z,6.25
2023-04-20T04:21:23.544Z,6.29
2023-04-20T04:26:31.960Z,6.27
2023-04-20T04:31:35.369Z,6.26
2023-04-20T04:36:44.529Z,6.15
2023-04-20T04:41:49.017Z,6.03
2023-04-20T04:47:11.967Z,5.88
2023-04-20T04:52:13.978Z,5.80
2023-04-20T04:57:15.856Z,5.81
2023-04-20T05:02:17.977Z,5.90
2023-04-20T05:07:20.064Z,5.83
2023-04-20T05:12:21.920Z,5.73
2023-04-20T05:17:23.801Z,5.72
2023-04-20T05:22:25.757Z,5.74
2023-04-20T05:27:27.567Z,5.81
2023-04-20T05:32:29.476Z,5.76
2023-04-20T05:37:32.373Z,5.52
2023-04-20T05:42:34.128Z,5.25
2023-04-20T05:47:35.921Z,5.16
2023-04-20T05:52:38.181Z,5.28
2023-04-20T05:57:43.081Z,5.43
2023-04-20T06:02:45.732Z,5.52
2023-04-20T06:07:47.585Z,5.52
2023-04-20T06:12:49.472Z,5.56
2023-04-20T06:17:51.365Z,5.50
2023-04-20T06:22:53.596Z,5.55
2023-04-20T06:27:55.377Z,5.68
2023-04-20T06:32:57.265Z,5.93
2023-04-20T06:37:59.624Z,6.03
2023-04-20T06:43:01.505Z,6.11
2023-04-20T06:48:03.810Z,6.21
2023-04-20T06:53:05.860Z,6.26
2023-04-20T06:58:07.676Z,6.33
2023-04-20T07:03:09.653Z,6.31
2023-04-20T07:08:11.518Z,6.33
2023-04-20T07:13:13.291Z,6.42
2023-04-20T07:18:15.319Z,6.49
2023-04-20T07:23:17.121Z,6.53
2023-04-20T07:28:18.939Z,6.45
2023-04-20T07:33:21.235Z,6.40
2023-04-20T07:38:23.016Z,6.42
2023-04-20T07:43:24.867Z,6.54
2023-04-20T07:48:26.627Z,6.59
2023-04-20T07:53:31.466Z,6.63
2023-04-20T07:58:33.241Z,6.69
2023-04-20T08:03:35.864Z,6.77
2023-04-20T08:08:37.768Z,6.87
2023-04-20T08:13:40.110Z,6.96
2023-04-20T08:18:42.555Z,7.01
2023-04-20T08:23:44.576Z,6.99
2023-04-20T08:28:46.782Z,7.01
2023-04-20T08:33:48.562Z,7.10
2023-04-20T08:39:14.797Z,7.21
2023-04-20T08:44:16.799Z,7.26
2023-04-20T08:49:19.986Z,7.43
2023-04-20T08:54:23.615Z,7.55
2023-04-20T08:59:27.525Z,7.65
2023-04-20T09:04:29.567Z,7.70
2023-04-20T09:09:31.646Z,7.73
2023-04-20T09:14:46.993Z,7.85
2023-04-20T09:19:53.570Z,7.98
2023-04-20T09:24:55.361Z,8.06
2023-04-20T09:30:01.221Z,8.13
2023-04-20T09:35:03.034Z,8.23
2023-04-20T09:40:06.096Z,8.31
2023-04-20T09:45:08.968Z,8.40
2023-04-20T09:50:24.686Z,8.45
2023-04-20T09:55:32.310Z,8.53
2023-04-20T10:00:34.219Z,8.57
2023-04-20T10:05:36.927Z,8.56
2023-04-20T10:10:50.261Z,8.61
2023-04-20T10:15:52.088Z,8.59
2023-04-20T10:21:06.400Z,8.64
2023-04-20T10:26:08.205Z,8.73
2023-04-20T10:31:13.769Z,8.79
2023-04-20T10:36:27.668Z,8.79
2023-04-20T10:41:29.461Z,8.84
2023-04-20T10:46:31.580Z,8.85
2023-04-20T10:51:33.478Z,8.87
2023-04-20T10:57:03.218Z,8.88
2023-04-20T11:02:10.873Z,8.88
2023-04-20T11:07:15.269Z,8.89
2023-04-20T11:12:18.041Z,8.94
2023-04-20T11:17:20.304Z,8.96
2023-04-20T11:22:23.603Z,8.98
2023-04-20T11:27:25.378Z,9.06
2023-04-20T11:32:27.478Z,9.07
2023-04-20T11:37:29.730Z,9.13
2023-04-20T11:42:32.111Z,9.21
2023-04-20T11:47:34.101Z,9.30
2023-04-20T11:52:36.310Z,9.39
2023-04-20T11:57:38.152Z,9.42
2023-04-20T12:02:40.102Z,9.47
2023-04-20T12:07:41.980Z,9.53
2023-04-20T12:12:43.737Z,9.64
2023-04-20T12:17:45.620Z,9.69
2023-04-20T12:22:47.425Z,9.82
2023-04-20T12:27:49.980Z,9.91
2023-04-20T12:32:51.903Z,9.99
2023-04-20T12:37:53.710Z,10.10
2023-04-20T12:42:55.641Z,10.20
2023-04-20T12:48:00.255Z,10.25
2023-04-20T12:53:02.481Z,10.35
2023-04-20T12:58:04.332Z,10.40
2023-04-20T13:03:06.339Z,10.48
2023-04-20T13:08:08.232Z,10.60
2023-04-20T13:13:12.837Z,10.72
2023-04-20T13:18:15.560Z,10.84
2023-04-20T13:23:17.375Z,10.92
2023-04-20T13:28:19.406Z,11.05
2023-04-20T13:33:21.190Z,11.15
2023-04-20T13:38:23.038Z,11.19
2023-04-20T13:43:25.580Z,11.41
2023-04-20T13:48:27.341Z,11.68
2023-04-20T13:53:29.166Z,11.86
2023-04-20T13:58:31.075Z,12.11
2023-04-20T14:03:32.899Z,12.35
2023-04-20T14:08:34.744Z,12.46
2023-04-20T14:13:38.139Z,12.68
2023-04-20T14:18:41.119Z,12.76
2023-04-20T14:23:43.096Z,12.84
2023-04-20T14:28:45.936Z,12.90
2023-04-20T14:33:47.784Z,12.88
2023-04-20T14:38:49.652Z,12.88
2023-04-20T14:43:51.475Z,12.94
2023-04-20T14:48:53.350Z,13.00
2023-04-20T14:53:55.599Z,13.01
2023-04-20T14:58:59.620Z,13.06
2023-04-20T15:04:01.721Z,13.11
2023-04-20T15:09:03.765Z,13.15
2023-04-20T15:14:05.563Z,13.20
2023-04-20T15:19:07.514Z,13.21
2023-04-20T15:24:09.470Z,13.20
2023-04-20T15:29:11.261Z,13.26
2023-04-20T15:34:15.412Z,13.25
2023-04-20T15:39:17.443Z,13.35
2023-04-20T15:44:19.824Z,13.46
2023-04-20T15:49:22.033Z,13.46
2023-04-20T15:54:23.935Z,13.44
2023-04-20T15:59:25.833Z,13.46
2023-04-20T16:04:27.721Z,13.55
2023-04-20T16:09:29.620Z,13.59
2023-04-20T16:14:31.821Z,13.61
2023-04-20T16:19:34.620Z,13.56
2023-04-20T16:24:36.437Z,13.54
2023-04-20T16:29:38.562Z,13.52
2023-04-20T16:34:41.123Z,13.48
2023-04-20T16:39:43.950Z,13.44
2023-04-20T16:44:45.766Z,13.45
2023-04-20T16:49:47.673Z,13.45
2023-04-20T16:54:49.888Z,13.43
2023-04-20T16:59:51.969Z,13.40
2023-04-20T17:04:54.317Z,13.40
2023-04-20T17:09:56.467Z,13.39
2023-04-20T17:14:58.294Z,13.40
2023-04-20T17:20:00.215Z,13.43
2023-04-20T17:25:02.450Z,13.36
2023-04-20T17:30:05.420Z,13.29
2023-04-20T17:35:07.901Z,13.27
2023-04-20T17:40:10.318Z,13.26
2023-04-20T17:45:12.132Z,13.29
2023-04-20T17:50:16.323Z,13.28
2023-04-20T17:55:18.375Z,13.23
2023-04-20T18:00:20.679Z,13.17
2023-04-20T18:05:22.478Z,13.14
2023-04-20T18:10:24.270Z,13.08
2023-04-20T18:15:26.251Z,13.04
2023-04-20T18:20:29.450Z,13.01
2023-04-20T18:25:32.222Z,12.95
2023-04-20T18:30:34.089Z,12.91
2023-04-20T18:35:35.900Z,12.82
2023-04-20T18:40:37.910Z,12.76
2023-04-20T18:45:39.724Z,12.70
2023-04-20T18:50:41.619Z,12.65
2023-04-20T18:55:43.392Z,12.56
2023-04-20T19:00:45.396Z,12.52
2023-04-20T19:05:47.452Z,12.52
2023-04-20T19:10:49.451Z,12.54
2023-04-20T19:15:55.210Z,12.56
2023-04-20T19:20:57.070Z,12.53
2023-04-20T19:25:58.850Z,12.52
2023-04-20T19:31:00.884Z,12.51
2023-04-20T19:36:03.499Z,12.49
2023-04-20T19:41:06.433Z,12.48
2023-04-20T19:46:09.906Z,12.43
2023-04-20T19:51:12.290Z,12.39
2023-04-20T19:56:14.145Z,12.32
2023-04-20T20:01:15.982Z,12.28
2023-04-20T20:06:18.463Z,12.24
2023-04-20T20:11:22.110Z,12.24
2023-04-20T20:16:24.036Z,12.25
2023-04-20T20:21:25.945Z,12.24
2023-04-20T20:26:27.801Z,12.22
2023-04-20T20:31:29.621Z,12.22
2023-04-20T20:36:32.042Z,12.21
2023-04-20T20:41:34.409Z,12.23
2023-04-20T20:46:40.212Z,12.24
2023-04-20T20:51:42.942Z,12.25
2023-04-20T20:56:44.783Z,12.21
2023-04-20T21:01:46.752Z,12.20
2023-04-20T21:06:48.867Z,12.17
2023-04-20T21:11:50.745Z,12.15
2023-04-20T21:16:52.544Z,12.17
2023-04-20T21:21:54.357Z,12.14
2023-04-20T21:26:56.602Z,12.13
2023-04-20T21:31:58.392Z,12.13
2023-04-20T21:37:04.194Z,12.13
2023-04-20T21:42:06.089Z,12.12
2023-04-20T21:47:08.141Z,12.11
2023-04-20T21:52:10.006Z,12.05
2023-04-20T21:57:11.817Z,11.89
2023-04-20T22:02:13.669Z,11.71
2023-04-20T22:07:17.772Z,11.52
2023-04-20T22:12:32.273Z,11.40
2023-04-20T22:17:38.573Z,11.21
2023-04-20T22:22:40.899Z,11.04
2023-04-20T22:27:43.104Z,10.92
2023-04-20T22:32:44.923Z,10.91
2023-04-20T22:37:46.706Z,10.73
2023-04-20T22:42:48.707Z,10.62
2023-04-20T22:47:50.678Z,10.60
2023-04-20T22:52:52.550Z,10.60
2023-04-20T22:57:54.472Z,10.57
2023-04-20T23:02:56.404Z,10.52
2023-04-20T23:08:00.539Z,10.51
2023-04-20T23:13:02.316Z,10.49
2023-04-20T23:18:05.773Z,10.53
2023-04-20T23:23:07.734Z,10.56
2023-04-20T23:28:09.696Z,10.56
2023-04-20T23:33:11.509Z,10.60
2023-04-20T23:38:13.412Z,10.63
2023-04-20T23:43:15.250Z,10.60
2023-04-20T23:48:17.129Z,10.39
2023-04-20T23:53:18.909Z,10.16
2023-04-20T23:58:25.791Z,10.09
